Time;durP1;ratioP1;P1;durP2;ratioP2;P2;SDS_P1;SDS_P2;PMS_P1;PMS_P2;Temp;Humidity;BMP_temperature;BMP_pressure;BME280_temperature;BME280_humidity;BME280_pressure;Samples;Min_cycle;Max_cycle;Signal;HPM_P1;HPM_P2
2023/04/18 00:04:38;;;;;;;5.43;2.33;;;7.80;99.90;;;;;;20769026;28;20071;-78
2023/04/18 00:14:39;;;;;;;3.97;3.07;;;7.80;99.90;;;;;;20776609;28;20033;-78
2023/04/18 00:24:40;;;;;;;3.70;2.40;;;7.80;99.90;;;;;;20779920;28;20045;-78
2023/04/18 00:34:41;;;;;;;3.53;2.90;;;8.00;99.90;;;;;;20775405;28;20034;-78
2023/04/18 00:44:42;;;;;;;5.33;3.07;;;8.10;99.90;;;;;;20778561;28;20040;-79
2023/04/18 00:54:44;;;;;;;4.95;3.10;;;8.10;99.90;;;;;;20780202;28;20108;-78
2023/04/18 01:04:45;;;;;;;6.28;3.20;;;8.20;99.90;;;;;;20781525;28;20068;-78
2023/04/18 01:14:46;;;;;;;;;;;8.20;99.90;;;;;;20779738;28;20042;-77
2023/04/18 01:24:47;;;;;;;4.73;3.10;;;8.20;99.90;;;;;;20764661;28;20332;-78
2023/04/18 01:34:50;;;;;;;5.25;3.53;;;8.20;99.90;;;;;;20778970;28;20044;-79
2023/04/18 01:44:51;;;;;;;7.63;3.57;;;8.20;99.90;;;;;;20780564;28;20069;-79
2023/04/18 01:54:52;;;;;;;5.50;3.43;;;8.30;99.90;;;;;;20774919;28;20042;-79
2023/04/18 02:04:53;;;;;;;5.73;3.83;;;8.30;99.90;;;;;;20788537;28;20026;-78
2023/04/18 02:14:54;;;;;;;5.47;3.57;;;8.40;99.90;;;;;;20786688;28;20061;-79
2023/04/18 02:24:54;;;;;;;4.40;3.23;;;8.30;99.90;;;;;;20781954;28;20087;-79
2023/04/18 02:34:55;;;;;;;5.47;3.80;;;8.30;99.90;;;;;;20786390;28;20048;-79
2023/04/18 02:44:56;;;;;;;6.40;3.77;;;8.40;99.90;;;;;;20777210;28;20516;-79
2023/04/18 02:54:58;;;;;;;7.25;3.97;;;8.30;99.90;;;;;;20771586;28;20101;-79
2023/04/18 03:05:05;;;;;;;7.00;4.75;;;8.30;99.90;;;;;;20775008;28;20036;-79
2023/04/18 03:15:07;;;;;;;7.35;4.97;;;8.40;99.90;;;;;;20773049;28;20057;-78
2023/04/18 03:25:09;;;;;;;6.88;4.63;;;8.30;99.90;;;;;;20771758;28;20164;-78
2023/04/18 03:35:20;;;;;;;8.82;5.60;;;8.30;99.90;;;;;;20766717;28;20068;-79
2023/04/18 03:45:21;;;;;;;9.03;4.97;;;8.30;99.90;;;;;;20775207;28;20030;-78
2023/04/18 03:55:22;;;;;;;7.20;5.10;;;8.30;99.90;;;;;;20784521;28;20026;-79
2023/04/18 04:05:24;;;;;;;8.82;5.70;;;8.40;99.90;;;;;;20779316;28;20037;-78
2023/04/18 04:15:25;;;;;;;8.10;5.35;;;8.30;99.90;;;;;;20757002;28;20026;-80
2023/04/18 04:25:45;;;;;;;7.70;5.20;;;8.30;99.90;;;;;;20772725;28;20084;-78
2023/04/18 04:35:56;;;;;;;8.73;5.72;;;8.30;99.90;;;;;;20786294;28;20037;-79
2023/04/18 04:45:58;;;;;;;8.52;5.13;;;8.30;99.90;;;;;;20839217;28;20056;-79
2023/04/18 04:55:59;;;;;;;8.73;5.50;;;8.40;99.90;;;;;;20826334;28;20022;-78
2023/04/18 05:06:01;;;;;;;10.13;5.82;;;8.40;99.90;;;;;;20772736;28;20026;-80
2023/04/18 05:16:02;;;;;;;8.80;5.35;;;8.40;99.90;;;;;;20794485;28;20396;-81
2023/04/18 05:26:04;;;;;;;10.02;5.97;;;8.40;99.90;;;;;;20789443;28;20034;-80
2023/04/18 05:36:06;;;;;;;9.05;6.20;;;8.50;99.90;;;;;;20767300;28;20029;-78
2023/04/18 05:46:07;;;;;;;10.70;5.97;;;8.50;99.90;;;;;;20780531;28;20044;-79
2023/04/18 05:56:08;;;;;;;12.65;5.97;;;8.50;99.90;;;;;;20767277;28;20034;-78
2023/04/18 06:06:10;;;;;;;10.40;6.13;;;8.50;99.90;;;;;;20790770;28;20040;-79
2023/04/18 06:16:11;;;;;;;11.85;6.57;;;8.60;99.90;;;;;;20789180;28;20058;-80
2023/04/18 06:26:11;;;;;;;12.27;7.03;;;8.60;99.90;;;;;;20789925;28;20038;-79
2023/04/18 06:36:12;;;;;;;9.63;6.00;;;8.70;99.90;;;;;;20765404;28;20296;-78
2023/04/18 06:46:13;;;;;;;10.83;6.50;;;8.80;99.90;;;;;;20778629;28;20315;-79
2023/04/18 06:56:14;;;;;;;12.30;7.37;;;8.90;99.90;;;;;;20779903;28;20512;-78
2023/04/18 07:06:15;;;;;;;15.18;7.80;;;9.00;99.90;;;;;;20764923;28;20036;-79
2023/04/18 07:16:16;;;;;;;13.23;7.23;;;9.00;99.90;;;;;;20760839;28;20058;-78
2023/04/18 07:26:17;;;;;;;12.23;7.27;;;9.20;99.90;;;;;;20765729;28;20037;-79
2023/04/18 07:36:17;;;;;;;16.93;9.43;;;9.10;99.90;;;;;;20779247;28;20116;-78
2023/04/18 07:46:19;;;;;;;13.30;7.65;;;9.30;99.90;;;;;;20775556;28;20452;-78
2023/04/18 07:56:20;;;;;;;11.03;7.00;;;9.30;99.90;;;;;;20751781;28;20120;-80
2023/04/18 08:06:21;;;;;;;15.97;8.00;;;9.30;99.90;;;;;;20769561;28;20099;-78
2023/04/18 08:16:22;;;;;;;13.90;8.73;;;9.50;99.90;;;;;;20787210;28;20026;-79
2023/04/18 08:26:23;;;;;;;13.20;7.37;;;9.70;99.90;;;;;;20794952;28;20026;-79
2023/04/18 08:36:23;;;;;;;18.33;7.57;;;9.70;99.90;;;;;;20794821;28;20453;-79
2023/04/18 08:46:25;;;;;;;12.20;6.80;;;10.00;99.90;;;;;;20788807;28;20038;-79
2023/04/18 08:56:26;;;;;;;;;;;10.30;99.90;;;;;;20783515;28;20036;-79
2023/04/18 09:06:29;;;;;;;15.45;7.82;;;10.50;99.90;;;;;;20779673;28;19917;-78
2023/04/18 09:16:45;;;;;;;28.02;13.05;;;10.70;99.90;;;;;;20784424;28;20034;-79
2023/04/18 09:26:48;;;;;;;15.00;8.35;;;10.80;99.90;;;;;;20787748;28;20037;-79
2023/04/18 09:37:04;;;;;;;15.55;8.48;;;11.00;99.90;;;;;;20785959;28;20049;-79
2023/04/18 09:47:08;;;;;;;12.30;7.03;;;11.60;99.90;;;;;;20789949;28;20034;-79
2023/04/18 09:57:12;;;;;;;10.32;6.25;;;12.10;99.90;;;;;;20786736;28;20036;-79
2023/04/18 10:07:15;;;;;;;12.32;7.57;;;11.90;99.90;;;;;;20788977;28;20038;-79
2023/04/18 10:17:16;;;;;;;14.82;7.65;;;11.70;99.90;;;;;;20790524;28;20042;-79
2023/04/18 10:27:18;;;;;;;12.47;6.67;;;11.60;99.90;;;;;;20785471;28;20195;-79
2023/04/18 10:37:19;;;;;;;14.55;7.88;;;12.10;99.90;;;;;;20782906;28;20485;-79
2023/04/18 10:47:20;;;;;;;12.90;7.47;;;12.50;99.90;;;;;;20769951;28;20108;-79
2023/04/18 10:57:21;;;;;;;16.20;7.90;;;12.60;99.90;;;;;;20780481;28;20038;-79
2023/04/18 11:07:34;;;;;;;15.27;8.40;;;12.40;99.90;;;;;;20784274;28;20040;-79
2023/04/18 11:17:38;;;;;;;12.30;7.57;;;13.80;99.90;;;;;;20781310;28;20401;-79
2023/04/18 11:27:44;;;;;;;13.40;7.28;;;13.20;99.90;;;;;;20777076;28;20096;-79
2023/04/18 11:37:45;;;;;;;15.40;8.27;;;13.40;99.90;;;;;;20769852;28;20030;-79
2023/04/18 11:47:46;;;;;;;12.13;7.43;;;15.50;99.90;;;;;;20784768;28;20052;-79
2023/04/18 11:57:54;;;;;;;36.47;17.17;;;14.40;99.90;;;;;;20805254;28;20048;-80
2023/04/18 12:08:03;;;;;;;12.40;7.63;;;14.30;99.90;;;;;;20779057;28;20038;-79
2023/04/18 12:18:07;;;;;;;9.63;6.70;;;14.90;99.90;;;;;;20791567;28;20034;-80
2023/04/18 12:28:15;;;;;;;10.05;6.60;;;15.20;99.90;;;;;;20789329;28;20496;-79
2023/04/18 12:38:20;;;;;;;8.88;5.57;;;14.50;99.90;;;;;;20789484;28;20030;-79
2023/04/18 12:48:21;;;;;;;8.77;5.45;;;14.90;99.90;;;;;;20793571;28;20037;-79
2023/04/18 12:58:22;;;;;;;9.67;5.23;;;14.90;99.90;;;;;;20781168;28;20037;-79
2023/04/18 13:08:23;;;;;;;7.47;5.20;;;14.50;99.90;;;;;;20790627;28;20040;-79
2023/04/18 13:18:24;;;;;;;8.33;5.17;;;16.00;99.90;;;;;;20789776;28;20034;-79
2023/04/18 13:28:24;;;;;;;12.23;5.00;;;16.30;99.90;;;;;;20776469;28;20030;-79
2023/04/18 13:38:26;;;;;;;8.40;4.97;;;16.60;99.90;;;;;;20788956;28;20511;-79
2023/04/18 13:48:27;;;;;;;7.10;4.70;;;17.80;99.90;;;;;;20772665;28;20052;-79
2023/04/18 13:58:28;;;;;;;8.13;4.67;;;18.40;99.90;;;;;;20783324;28;20026;-79
2023/04/18 14:08:29;;;;;;;7.93;4.27;;;17.40;99.90;;;;;;20784185;28;20090;-79
2023/04/18 14:18:30;;;;;;;7.10;4.50;;;17.10;99.90;;;;;;20763655;28;20386;-79
2023/04/18 14:28:31;;;;;;;7.60;4.70;;;18.20;99.90;;;;;;20777620;28;20061;-79
2023/04/18 14:38:32;;;;;;;6.70;4.30;;;17.50;99.90;;;;;;20794819;28;20041;-79
2023/04/18 14:48:32;;;;;;;5.43;3.73;;;16.30;99.90;;;;;;20796711;28;20029;-80
2023/04/18 14:58:33;;;;;;;7.87;5.20;;;17.50;99.90;;;;;;20783240;28;20041;-80
2023/04/18 15:08:34;;;;;;;9.80;5.30;;;17.70;99.90;;;;;;20779496;28;20046;-79
2023/04/18 15:18:35;;;;;;;7.40;4.80;;;16.70;99.90;;;;;;20779044;28;20038;-79
2023/04/18 15:28:35;;;;;;;8.77;5.40;;;17.70;99.90;;;;;;20778224;28;20034;-80
2023/04/18 15:38:36;;;;;;;8.50;5.77;;;18.10;99.90;;;;;;20759685;28;20302;-79
2023/04/18 15:48:37;;;;;;;9.80;5.33;;;16.70;99.90;;;;;;20778258;28;20030;-80
2023/04/18 15:58:38;;;;;;;6.60;4.13;;;16.00;99.90;;;;;;20772317;28;20542;-80
2023/04/18 16:08:39;;;;;;;6.40;4.50;;;15.80;99.90;;;;;;20763324;28;20041;-78
2023/04/18 16:18:39;;;;;;;6.67;3.97;;;16.00;99.90;;;;;;20837144;28;20038;-79
2023/04/18 16:28:40;;;;;;;8.17;4.83;;;15.70;99.90;;;;;;20848576;28;20404;-79
2023/04/18 16:38:41;;;;;;;7.60;4.37;;;15.30;99.90;;;;;;20852542;28;20032;-79
2023/04/18 16:48:44;;;;;;;6.60;3.87;;;15.10;99.90;;;;;;20780431;28;20034;-79
2023/04/18 16:58:45;;;;;;;8.13;4.07;;;15.10;99.90;;;;;;20767428;28;20037;-78
2023/04/18 17:08:47;;;;;;;4.57;3.43;;;14.70;99.90;;;;;;20762781;28;20048;-78
2023/04/18 17:18:48;;;;;;;7.45;3.88;;;14.40;99.90;;;;;;20761223;28;20496;-78
2023/04/18 17:28:49;;;;;;;6.60;3.80;;;14.20;99.90;;;;;;20758023;28;20037;-79
2023/04/18 17:38:50;;;;;;;8.60;3.53;;;14.00;99.90;;;;;;20757225;28;20496;-79
2023/04/18 17:48:50;;;;;;;6.10;3.53;;;13.70;99.90;;;;;;20819595;28;20038;-78
2023/04/18 17:58:51;;;;;;;8.00;4.03;;;13.60;99.90;;;;;;20770600;28;20501;-78
2023/04/18 18:08:52;;;;;;;6.20;3.77;;;13.30;99.90;;;;;;20750504;28;20038;-78
2023/04/18 18:18:53;;;;;;;6.60;3.87;;;12.90;99.90;;;;;;20759886;28;20112;-80
2023/04/18 18:28:54;;;;;;;6.60;3.93;;;12.60;99.90;;;;;;20761086;28;20511;-80
2023/04/18 18:38:55;;;;;;;6.70;3.63;;;12.50;99.90;;;;;;20763546;28;20037;-79
2023/04/18 18:48:55;;;;;;;7.77;4.27;;;12.30;99.90;;;;;;20768963;28;20038;-80
2023/04/18 18:58:56;;;;;;;7.53;4.30;;;12.10;99.90;;;;;;20747544;28;20025;-79
2023/04/18 19:08:57;;;;;;;8.03;4.47;;;11.80;99.90;;;;;;20776391;28;20144;-78
2023/04/18 19:18:58;;;;;;;7.27;4.20;;;11.70;99.90;;;;;;20803722;28;20676;-79
2023/04/18 19:28:59;;;;;;;10.67;4.27;;;11.60;99.90;;;;;;20761547;28;20040;-79
2023/04/18 19:39:00;;;;;;;8.20;4.53;;;11.40;99.90;;;;;;20756717;28;20383;-80
2023/04/18 19:49:00;;;;;;;6.80;4.37;;;11.30;99.90;;;;;;20743791;28;20124;-79
2023/04/18 19:59:04;;;;;;;10.70;4.83;;;11.20;99.90;;;;;;20778376;28;20025;-79
2023/04/18 20:09:13;;;;;;;8.10;4.45;;;11.10;99.90;;;;;;20825451;28;20034;-78
2023/04/18 20:19:14;;;;;;;7.80;4.55;;;10.90;99.90;;;;;;20813311;28;20034;-80
2023/04/18 20:29:15;;;;;;;7.80;4.33;;;10.80;99.90;;;;;;20816119;28;20042;-79
2023/04/18 20:39:17;;;;;;;7.80;4.93;;;10.60;99.90;;;;;;20764977;28;20787;-77
2023/04/18 20:49:17;;;;;;;8.45;4.90;;;10.50;99.90;;;;;;20754251;28;20045;-77
2023/04/18 20:59:18;;;;;;;9.33;5.50;;;10.50;99.90;;;;;;20757045;28;20428;-77
2023/04/18 21:09:19;;;;;;;8.93;5.10;;;10.40;99.90;;;;;;20756665;28;20053;-78
2023/04/18 21:19:20;;;;;;;13.03;4.50;;;10.30;99.90;;;;;;20752677;28;20033;-77
2023/04/18 21:29:21;;;;;;;8.90;5.13;;;10.20;99.90;;;;;;20753102;28;20037;-78
2023/04/18 21:39:22;;;;;;;9.13;4.87;;;10.10;99.90;;;;;;20756035;28;20034;-78
2023/04/18 21:49:23;;;;;;;7.30;4.43;;;10.00;99.90;;;;;;20752164;28;20034;-78
2023/04/18 21:59:24;;;;;;;9.05;4.40;;;9.90;99.90;;;;;;20757191;28;20404;-78
2023/04/18 22:09:25;;;;;;;7.37;4.10;;;9.70;99.90;;;;;;20749562;28;20065;-78
2023/04/18 22:19:28;;;;;;;6.93;4.60;;;9.60;99.90;;;;;;20747874;28;20503;-78
2023/04/18 22:29:28;;;;;;;9.63;4.88;;;9.60;99.90;;;;;;20747569;28;20029;-80
2023/04/18 22:39:30;;;;;;;8.07;4.10;;;9.50;99.90;;;;;;20748218;28;20073;-78
2023/04/18 22:49:31;;;;;;;8.75;4.63;;;9.30;99.90;;;;;;20748631;28;20034;-78
2023/04/18 22:59:32;;;;;;;7.70;4.53;;;9.10;99.90;;;;;;20737002;28;20029;-78
2023/04/18 23:09:33;;;;;;;9.93;3.77;;;9.10;99.90;;;;;;20745937;28;20038;-79
2023/04/18 23:19:34;;;;;;;10.07;4.40;;;9.10;99.90;;;;;;20746825;28;20038;-78
2023/04/18 23:29:36;;;;;;;9.40;4.93;;;8.90;99.90;;;;;;20738006;28;20501;-79
2023/04/18 23:39:37;;;;;;;16.02;6.10;;;8.70;99.90;;;;;;20744696;28;20493;-78
2023/04/18 23:49:38;;;;;;;11.97;5.27;;;8.40;99.90;;;;;;20736545;28;20052;-77
2023/04/18 23:59:39;;;;;;;8.33;4.77;;;8.40;99.90;;;;;;20745705;28;20058;-78
